Time;durP1;ratioP1;P1;durP2;ratioP2;P2;SDS_P1;SDS_P2;PMS_P1;PMS_P2;Temp;Humidity;BMP_temperature;BMP_pressure;BME280_temperature;BME280_humidity;BME280_pressure;Samples;Min_cycle;Max_cycle;Signal;HPM_P1;HPM_P2
2022/07/20 00:00:37;;;;;;;8.05;5.43;;;29.40;51.40;;;;;;5022726;28;20687;-59
2022/07/20 00:03:07;;;;;;;8.98;5.47;;;29.40;51.60;;;;;;5024775;28;20035;-59
2022/07/20 00:05:33;;;;;;;6.97;5.43;;;29.40;51.80;;;;;;5021527;28;20099;-59
2022/07/20 00:07:58;;;;;;;10.48;5.72;;;29.30;51.70;;;;;;5023569;28;20138;-60
2022/07/20 00:13:08;;;;;;;7.45;5.28;;;29.30;52.00;;;;;;5021183;28;20036;-59
2022/07/20 00:15:33;;;;;;;9.02;5.70;;;29.30;52.10;;;;;;5021552;28;20026;-60
2022/07/20 00:17:59;;;;;;;6.43;4.75;;;29.20;52.20;;;;;;5004889;28;20057;-59
2022/07/20 00:20:24;;;;;;;5.35;4.85;;;29.20;52.20;;;;;;5020400;28;20040;-59
2022/07/20 00:22:50;;;;;;;8.38;5.45;;;29.10;52.30;;;;;;5021984;28;20033;-59
2022/07/20 00:25:15;;;;;;;8.98;5.07;;;29.10;52.40;;;;;;5024361;28;20033;-59
2022/07/20 00:27:41;;;;;;;7.07;4.95;;;29.10;52.50;;;;;;5023746;28;20033;-59
2022/07/20 00:30:07;;;;;;;7.25;4.90;;;29.10;52.50;;;;;;5025296;28;20041;-59
2022/07/20 00:32:37;;;;;;;9.73;4.25;;;29.10;52.60;;;;;;5023327;28;20287;-59
2022/07/20 00:35:07;;;;;;;6.22;4.32;;;29.00;52.70;;;;;;5021254;28;20025;-59
2022/07/20 00:37:32;;;;;;;6.82;4.50;;;29.00;52.70;;;;;;5019055;28;20083;-59
2022/07/20 00:39:58;;;;;;;6.53;4.43;;;29.00;52.90;;;;;;5021475;28;20057;-59
2022/07/20 00:42:24;;;;;;;5.63;4.47;;;28.90;53.10;;;;;;5023424;28;20061;-59
2022/07/20 00:44:49;;;;;;;6.47;4.30;;;28.90;53.30;;;;;;5022704;28;20455;-60
2022/07/20 00:47:15;;;;;;;8.05;4.50;;;28.80;53.30;;;;;;4997561;28;20502;-59
2022/07/20 00:49:40;;;;;;;5.15;4.10;;;28.80;53.60;;;;;;5018114;28;20453;-59
2022/07/20 00:52:06;;;;;;;8.45;4.68;;;28.80;53.70;;;;;;5023569;28;20049;-59
2022/07/20 00:54:31;;;;;;;6.22;4.55;;;28.80;53.90;;;;;;5006270;28;20584;-59
2022/07/20 00:56:57;;;;;;;6.65;4.32;;;28.80;54.00;;;;;;5023707;28;20112;-59
2022/07/20 00:59:22;;;;;;;4.85;4.18;;;28.70;54.10;;;;;;5018826;28;20075;-59
2022/07/20 01:01:48;;;;;;;9.23;3.72;;;28.70;54.20;;;;;;5004606;28;20626;-59
2022/07/20 01:04:13;;;;;;;8.27;4.25;;;28.70;54.40;;;;;;5017143;28;20060;-59
2022/07/20 01:06:39;;;;;;;6.78;4.15;;;28.60;54.40;;;;;;5020793;28;20060;-60
2022/07/20 01:09:04;;;;;;;5.60;4.40;;;28.60;54.50;;;;;;5023467;28;20112;-60
2022/07/20 01:11:30;;;;;;;8.32;4.30;;;28.60;54.60;;;;;;5023058;28;20080;-61
2022/07/20 01:14:06;;;;;;;5.60;4.32;;;28.60;54.70;;;;;;5022829;28;20040;-60
2022/07/20 01:16:32;;;;;;;8.32;4.35;;;28.60;54.70;;;;;;5022834;28;20376;-62
2022/07/20 01:18:58;;;;;;;8.65;4.20;;;28.60;54.80;;;;;;5021648;28;20029;-61
2022/07/20 01:21:23;;;;;;;6.95;4.10;;;28.50;54.80;;;;;;5020567;28;20040;-61
2022/07/20 01:23:49;;;;;;;7.18;4.05;;;28.50;54.90;;;;;;5022402;28;20599;-60
2022/07/20 01:26:18;;;;;;;4.93;3.55;;;28.40;54.90;;;;;;5021960;28;20635;-61
2022/07/20 01:28:43;;;;;;;9.15;4.00;;;28.40;55.00;;;;;;5021362;28;20061;-60
2022/07/20 01:31:09;;;;;;;6.70;4.28;;;28.40;55.00;;;;;;5020239;28;20076;-61
2022/07/20 01:33:34;;;;;;;5.00;3.90;;;28.40;55.10;;;;;;4987154;28;20025;-61
2022/07/20 01:36:00;;;;;;;8.15;4.30;;;28.40;55.20;;;;;;5019239;28;20099;-58
2022/07/20 01:38:25;;;;;;;7.32;3.45;;;28.40;55.30;;;;;;5004960;28;20037;-61
2022/07/20 01:40:51;;;;;;;6.03;3.88;;;28.30;55.30;;;;;;5020815;28;20037;-60
2022/07/20 01:43:17;;;;;;;6.32;4.07;;;28.40;55.40;;;;;;5023323;28;20477;-60
2022/07/20 01:45:42;;;;;;;6.60;4.05;;;28.30;55.30;;;;;;5020646;28;20635;-58
2022/07/20 01:48:08;;;;;;;6.88;3.75;;;28.30;55.40;;;;;;5015144;28;20021;-58
2022/07/20 01:50:33;;;;;;;5.93;4.28;;;28.30;55.50;;;;;;5022514;28;20037;-58
2022/07/20 01:52:59;;;;;;;7.90;4.10;;;28.30;55.60;;;;;;5020794;28;20037;-59
2022/07/20 01:55:24;;;;;;;5.82;4.50;;;28.20;55.70;;;;;;5020134;28;20045;-60
2022/07/20 01:57:50;;;;;;;7.50;4.50;;;28.20;55.70;;;;;;5019688;28;20033;-61
2022/07/20 02:00:15;;;;;;;7.80;4.28;;;28.20;55.80;;;;;;5023303;28;20482;-60
2022/07/20 02:02:41;;;;;;;6.78;4.20;;;28.20;55.90;;;;;;5021708;28;20047;-58
2022/07/20 02:05:08;;;;;;;5.72;4.53;;;28.20;55.90;;;;;;5022151;28;20392;-58
2022/07/20 02:07:34;;;;;;;8.18;4.47;;;28.10;56.00;;;;;;5025200;28;20109;-60
2022/07/20 02:10:00;;;;;;;6.63;4.15;;;28.10;56.00;;;;;;5026329;28;20025;-59
2022/07/20 02:12:25;;;;;;;6.43;4.20;;;28.10;56.10;;;;;;5007418;28;20080;-59
2022/07/20 02:14:50;;;;;;;7.85;3.75;;;28.10;56.20;;;;;;5026536;28;20025;-60
2022/07/20 02:17:16;;;;;;;5.28;4.40;;;28.10;56.30;;;;;;5024691;28;20421;-60
2022/07/20 02:19:42;;;;;;;9.43;4.65;;;28.00;56.30;;;;;;5023443;28;20069;-60
2022/07/20 02:22:07;;;;;;;6.72;4.03;;;28.10;56.40;;;;;;5025033;28;20065;-60
2022/07/20 02:24:32;;;;;;;5.40;4.40;;;28.00;56.40;;;;;;5044234;28;20077;-61
2022/07/20 02:26:58;;;;;;;5.38;3.60;;;28.00;56.60;;;;;;5026669;28;20109;-60
2022/07/20 02:29:23;;;;;;;9.05;4.50;;;28.00;56.70;;;;;;5027997;28;20037;-60
2022/07/20 02:31:49;;;;;;;7.50;4.32;;;27.90;56.70;;;;;;5027077;28;20037;-60
2022/07/20 02:34:14;;;;;;;7.68;4.35;;;27.90;56.90;;;;;;5025165;28;20385;-60
2022/07/20 02:36:40;;;;;;;4.68;4.18;;;27.90;56.90;;;;;;5024305;28;20593;-60
2022/07/20 02:39:07;;;;;;;7.03;4.35;;;27.90;57.00;;;;;;5025604;28;20041;-60
2022/07/20 02:41:34;;;;;;;5.15;4.45;;;27.90;57.10;;;;;;5024949;28;20079;-60
2022/07/20 02:44:00;;;;;;;10.15;4.85;;;27.90;57.20;;;;;;5025545;28;20108;-60
2022/07/20 02:46:26;;;;;;;6.50;4.60;;;27.80;57.30;;;;;;5026152;28;20442;-60
2022/07/20 02:48:51;;;;;;;6.43;4.63;;;27.80;57.30;;;;;;5024620;28;20038;-60
2022/07/20 02:51:16;;;;;;;4.85;4.18;;;27.80;57.50;;;;;;5026801;28;20124;-59
2022/07/20 02:53:42;;;;;;;8.38;4.65;;;27.80;57.60;;;;;;5024738;28;20033;-59
2022/07/20 02:56:08;;;;;;;5.03;4.30;;;27.80;57.60;;;;;;5025872;28;20036;-60
2022/07/20 02:58:33;;;;;;;7.40;4.47;;;27.70;57.60;;;;;;5022713;28;20067;-60
2022/07/20 03:00:59;;;;;;;6.55;4.47;;;27.70;57.80;;;;;;5024018;28;20039;-60
2022/07/20 03:03:24;;;;;;;7.75;4.40;;;27.70;57.80;;;;;;5024384;28;20033;-60
2022/07/20 03:05:50;;;;;;;10.32;4.53;;;27.70;57.90;;;;;;5022877;28;20052;-60
2022/07/20 03:08:17;;;;;;;6.85;4.30;;;27.60;58.00;;;;;;5022277;28;20676;-60
2022/07/20 03:10:43;;;;;;;8.98;4.85;;;27.60;58.10;;;;;;4992172;28;20029;-60
2022/07/20 03:13:08;;;;;;;10.85;5.20;;;27.70;58.20;;;;;;5006964;28;20037;-60
2022/07/20 03:15:34;;;;;;;6.60;4.53;;;27.60;58.20;;;;;;5023306;28;20018;-60
2022/07/20 03:17:59;;;;;;;5.97;5.13;;;27.60;58.30;;;;;;5015494;28;21065;-60
2022/07/20 03:20:31;;;;;;;6.25;4.47;;;27.60;58.40;;;;;;5024061;28;20426;-59
2022/07/20 03:22:57;;;;;;;8.65;4.80;;;27.50;58.40;;;;;;5023275;28;20037;-59
2022/07/20 03:25:23;;;;;;;8.15;4.65;;;27.50;58.40;;;;;;5019963;28;20045;-60
2022/07/20 03:27:51;;;;;;;10.15;4.80;;;27.50;58.50;;;;;;5018807;28;20457;-60
2022/07/20 03:30:16;;;;;;;5.80;4.50;;;27.40;58.50;;;;;;5023463;28;20025;-60
2022/07/20 03:32:42;;;;;;;8.73;4.75;;;27.40;58.70;;;;;;5021703;28;20083;-60
2022/07/20 03:35:08;;;;;;;10.82;4.68;;;27.40;58.70;;;;;;5023612;28;20053;-60
2022/07/20 03:37:33;;;;;;;8.43;4.07;;;27.40;58.80;;;;;;5021520;28;20043;-61
2022/07/20 03:39:59;;;;;;;8.98;4.47;;;27.40;58.90;;;;;;5023614;28;20140;-60
2022/07/20 03:42:25;;;;;;;10.05;4.93;;;27.30;58.90;;;;;;5021328;28;20132;-60
2022/07/20 03:44:50;;;;;;;13.25;4.13;;;27.30;59.00;;;;;;5019962;28;20060;-60
2022/07/20 03:47:16;;;;;;;6.40;4.40;;;27.30;58.90;;;;;;5021015;28;20031;-60
2022/07/20 03:49:41;;;;;;;7.95;4.65;;;27.20;59.00;;;;;;5017801;28;20030;-61
2022/07/20 03:52:07;;;;;;;9.98;4.68;;;27.20;59.00;;;;;;5023752;28;20442;-60
2022/07/20 03:54:32;;;;;;;10.25;4.82;;;27.20;59.10;;;;;;5021614;28;20167;-60
2022/07/20 03:56:58;;;;;;;7.85;4.68;;;27.20;59.20;;;;;;5023497;28;20126;-61
2022/07/20 03:59:23;;;;;;;7.15;4.63;;;27.10;59.20;;;;;;5021802;28;20550;-60
2022/07/20 04:01:49;;;;;;;7.72;4.85;;;27.10;59.30;;;;;;5025506;28;20032;-59
2022/07/20 04:04:14;;;;;;;9.60;4.53;;;27.10;59.40;;;;;;5019382;28;20041;-64
2022/07/20 04:06:40;;;;;;;10.70;5.18;;;27.10;59.50;;;;;;5023173;28;20054;-60
2022/07/20 04:09:05;;;;;;;13.18;5.00;;;27.00;59.50;;;;;;5021892;28;20052;-60
2022/07/20 04:11:31;;;;;;;9.63;4.90;;;27.10;59.60;;;;;;5022536;28;20021;-60
2022/07/20 04:13:56;;;;;;;12.40;5.40;;;27.10;59.70;;;;;;5023794;28;20033;-59
2022/07/20 04:16:22;;;;;;;19.48;6.78;;;27.00;59.80;;;;;;5005660;28;20412;-60
2022/07/20 04:18:47;;;;;;;17.35;6.32;;;27.00;59.90;;;;;;5019682;28;20032;-60
2022/07/20 04:21:14;;;;;;;23.10;6.97;;;27.00;60.00;;;;;;5022035;28;20088;-60
2022/07/20 04:23:40;;;;;;;25.40;6.35;;;27.00;60.10;;;;;;5019828;28;20033;-60
2022/07/20 04:26:05;;;;;;;12.07;6.18;;;26.90;60.80;;;;;;5024006;28;20083;-60
2022/07/20 04:28:31;;;;;;;13.27;5.22;;;26.80;61.00;;;;;;5021123;28;20051;-60
2022/07/20 04:30:56;;;;;;;16.50;5.53;;;26.80;61.40;;;;;;5024565;28;20111;-59
2022/07/20 04:33:22;;;;;;;13.82;5.15;;;26.70;61.60;;;;;;5018264;28;20100;-60
2022/07/20 04:35:47;;;;;;;10.52;4.90;;;26.70;61.80;;;;;;5022211;28;20099;-60
2022/07/20 04:38:13;;;;;;;7.63;4.80;;;26.70;62.00;;;;;;5020005;28;20057;-60
2022/07/20 04:40:39;;;;;;;12.90;4.55;;;26.60;62.10;;;;;;5022959;28;20573;-60
2022/07/20 04:43:05;;;;;;;13.57;4.95;;;26.60;62.20;;;;;;5020181;28;20080;-59
2022/07/20 04:45:31;;;;;;;13.63;5.30;;;26.50;62.10;;;;;;5023123;28;20041;-60
2022/07/20 04:47:56;;;;;;;12.27;4.60;;;26.50;62.20;;;;;;5021208;28;20490;-60
2022/07/20 04:50:22;;;;;;;11.57;4.53;;;26.50;62.20;;;;;;5021721;28;20465;-60
2022/07/20 04:52:47;;;;;;;13.80;4.82;;;26.50;62.40;;;;;;5024626;28;20033;-60
2022/07/20 04:55:13;;;;;;;8.23;4.57;;;26.50;62.30;;;;;;5023164;28;20040;-59
2022/07/20 04:57:38;;;;;;;10.45;4.82;;;26.50;62.40;;;;;;5019052;28;20029;-60
2022/07/20 05:00:04;;;;;;;9.32;4.38;;;26.50;62.70;;;;;;5019577;28;20041;-60
2022/07/20 05:02:30;;;;;;;6.35;4.25;;;26.50;62.80;;;;;;5019590;28;20101;-60
2022/07/20 05:04:55;;;;;;;7.45;4.28;;;26.50;63.00;;;;;;5020226;28;20030;-59
2022/07/20 05:07:21;;;;;;;13.93;4.35;;;26.40;63.00;;;;;;5016935;28;20508;-59
2022/07/20 05:09:46;;;;;;;9.57;4.40;;;26.40;62.90;;;;;;5019818;28;20503;-60
2022/07/20 05:12:12;;;;;;;9.60;4.75;;;26.40;62.90;;;;;;5024862;28;20045;-60
2022/07/20 05:14:37;;;;;;;9.00;4.45;;;26.40;63.10;;;;;;5021045;28;20064;-59
2022/07/20 05:17:03;;;;;;;6.88;4.78;;;26.40;63.20;;;;;;5011420;28;20091;-60
2022/07/20 05:19:28;;;;;;;8.43;4.78;;;26.40;63.40;;;;;;5017366;28;20060;-60
2022/07/20 05:21:56;;;;;;;7.43;4.15;;;26.40;63.30;;;;;;5021768;28;20437;-60
2022/07/20 05:24:21;;;;;;;6.22;4.10;;;26.40;63.40;;;;;;5022009;28;20099;-60
2022/07/20 05:26:47;;;;;;;10.70;4.47;;;26.40;63.50;;;;;;5021140;28;20034;-59
2022/07/20 05:29:12;;;;;;;7.55;4.97;;;26.40;63.80;;;;;;5020563;28;20424;-60
2022/07/20 05:31:38;;;;;;;7.55;4.80;;;26.40;63.60;;;;;;5023682;28;20052;-60
2022/07/20 05:34:03;;;;;;;7.18;4.60;;;26.50;63.60;;;;;;5021347;28;20038;-61
2022/07/20 05:36:29;;;;;;;9.23;4.80;;;26.40;63.50;;;;;;5021543;28;20025;-63
2022/07/20 05:38:54;;;;;;;7.00;4.85;;;26.50;63.70;;;;;;5023675;28;20092;-60
2022/07/20 05:41:20;;;;;;;6.10;4.30;;;26.50;63.80;;;;;;5022279;28;20119;-60
2022/07/20 05:43:45;;;;;;;8.32;4.65;;;26.50;63.70;;;;;;5019416;28;20223;-60
2022/07/20 05:46:11;;;;;;;7.63;4.40;;;26.50;63.70;;;;;;5021134;28;20149;-59
2022/07/20 05:48:36;;;;;;;8.70;4.70;;;26.50;63.90;;;;;;5017084;28;20072;-60
2022/07/20 05:51:02;;;;;;;9.27;5.40;;;26.50;63.60;;;;;;5022698;28;20492;-59
2022/07/20 05:53:27;;;;;;;7.97;4.55;;;26.50;63.70;;;;;;5021413;28;20034;-59
2022/07/20 05:55:53;;;;;;;11.55;4.70;;;26.50;63.70;;;;;;5021106;28;20033;-60
2022/07/20 05:58:18;;;;;;;7.57;4.30;;;26.50;64.00;;;;;;5019845;28;20041;-60
2022/07/20 06:00:44;;;;;;;10.63;4.32;;;26.50;64.00;;;;;;5021623;28;20350;-60
2022/07/20 06:03:09;;;;;;;12.85;5.35;;;26.50;63.70;;;;;;5022391;28;20538;-59
2022/07/20 06:05:35;;;;;;;13.32;4.97;;;26.60;64.20;;;;;;5018454;28;20036;-59
2022/07/20 06:08:01;;;;;;;11.70;5.07;;;26.50;64.10;;;;;;5016931;28;20029;-60
2022/07/20 06:10:27;;;;;;;9.45;4.88;;;26.40;64.10;;;;;;5020960;28;20061;-61
2022/07/20 06:12:55;;;;;;;9.75;4.68;;;26.40;64.50;;;;;;5020711;28;20029;-59
2022/07/20 06:15:21;;;;;;;11.95;4.95;;;26.40;64.50;;;;;;5015381;28;20421;-61
2022/07/20 06:17:46;;;;;;;15.65;5.35;;;26.40;64.50;;;;;;5020833;28;20064;-60
2022/07/20 06:20:13;;;;;;;10.50;5.50;;;26.40;64.50;;;;;;5014039;28;20524;-60
2022/07/20 06:22:39;;;;;;;11.98;5.68;;;26.40;64.40;;;;;;5019379;28;20459;-59
2022/07/20 06:25:05;;;;;;;10.70;4.75;;;26.40;64.60;;;;;;5018486;28;20025;-60
2022/07/20 06:27:31;;;;;;;15.73;5.57;;;26.40;64.60;;;;;;5000824;28;20048;-60
2022/07/20 06:29:57;;;;;;;14.00;5.78;;;26.40;64.60;;;;;;5020166;28;20041;-60
2022/07/20 06:32:23;;;;;;;21.90;6.35;;;26.40;64.80;;;;;;5019281;28;20484;-60
2022/07/20 06:34:48;;;;;;;20.30;5.47;;;26.40;64.90;;;;;;5021234;28;20193;-60
2022/07/20 06:37:14;;;;;;;16.33;5.35;;;26.40;64.60;;;;;;5018694;28;20111;-60
2022/07/20 06:39:39;;;;;;;19.70;5.47;;;26.40;65.00;;;;;;5018664;28;20033;-60
2022/07/20 06:42:05;;;;;;;13.27;5.70;;;26.40;65.10;;;;;;5021920;28;20340;-60
2022/07/20 06:44:30;;;;;;;26.88;7.07;;;26.50;65.10;;;;;;5018708;28;20506;-61
2022/07/20 06:46:56;;;;;;;28.15;7.25;;;26.50;65.30;;;;;;5019490;28;20124;-60
2022/07/20 06:49:21;;;;;;;34.95;7.55;;;26.50;65.20;;;;;;5021020;28;20905;-60
2022/07/20 06:51:47;;;;;;;31.55;7.10;;;26.50;64.90;;;;;;5019867;28;20021;-60
2022/07/20 06:54:13;;;;;;;32.60;6.82;;;26.60;65.00;;;;;;5023289;28;20129;-60
2022/07/20 06:56:38;;;;;;;26.08;6.65;;;26.60;64.80;;;;;;5021653;28;20029;-60
2022/07/20 06:59:04;;;;;;;21.40;7.00;;;26.60;64.70;;;;;;5020816;28;20508;-60
2022/07/20 07:01:29;;;;;;;20.83;6.32;;;26.70;64.70;;;;;;5022746;28;20065;-59
2022/07/20 07:03:55;;;;;;;32.45;7.30;;;26.70;64.40;;;;;;5024479;28;20126;-60
2022/07/20 07:06:24;;;;;;;30.73;6.93;;;26.70;64.60;;;;;;5025486;28;20035;-60
2022/07/20 07:08:49;;;;;;;28.05;7.50;;;26.70;64.70;;;;;;5023099;28;20025;-61
2022/07/20 07:11:15;;;;;;;31.05;7.38;;;26.80;64.90;;;;;;5023840;28;20109;-60
2022/07/20 07:13:40;;;;;;;33.72;7.95;;;26.80;64.50;;;;;;5005443;28;21468;-61
2022/07/20 07:16:06;;;;;;;33.17;7.20;;;26.80;64.40;;;;;;5022203;28;20033;-61
2022/07/20 07:18:32;;;;;;;48.78;9.65;;;26.80;64.80;;;;;;5020596;28;20051;-61
2022/07/20 07:20:57;;;;;;;27.88;7.78;;;26.80;64.90;;;;;;5021188;28;20464;-60
2022/07/20 07:23:23;;;;;;;34.10;8.77;;;26.90;64.60;;;;;;5023245;28;20091;-59
2022/07/20 07:25:48;;;;;;;35.10;7.88;;;26.90;65.20;;;;;;5005619;28;20025;-61
2022/07/20 07:28:14;;;;;;;33.25;8.52;;;26.90;64.90;;;;;;5020666;28;20848;-60
2022/07/20 07:30:39;;;;;;;28.80;8.13;;;26.90;65.00;;;;;;5022051;28;20557;-60
2022/07/20 07:33:05;;;;;;;35.50;8.93;;;26.90;65.40;;;;;;5021858;28;20025;-61
2022/07/20 07:35:30;;;;;;;29.45;8.18;;;27.00;65.30;;;;;;5023290;28;20445;-60
2022/07/20 07:37:56;;;;;;;30.90;8.75;;;26.90;65.20;;;;;;5019847;28;20156;-60
2022/07/20 07:40:21;;;;;;;36.22;8.68;;;27.00;64.90;;;;;;5022235;28;20025;-61
2022/07/20 07:42:47;;;;;;;35.85;9.10;;;27.00;65.20;;;;;;5023044;28;20050;-60
2022/07/20 07:45:12;;;;;;;36.70;8.88;;;27.00;65.20;;;;;;5023324;28;20037;-60
2022/07/20 07:47:38;;;;;;;33.28;8.70;;;27.00;65.40;;;;;;5019705;28;20683;-59
2022/07/20 07:50:04;;;;;;;37.97;8.20;;;27.00;65.50;;;;;;5020881;28;20037;-59
2022/07/20 07:52:30;;;;;;;29.95;8.20;;;27.10;65.60;;;;;;5017900;28;20040;-60
2022/07/20 07:54:55;;;;;;;33.20;8.07;;;27.10;65.70;;;;;;5020168;28;20037;-60
2022/07/20 07:57:21;;;;;;;19.98;7.55;;;27.10;65.60;;;;;;5022195;28;20061;-61
2022/07/20 07:59:46;;;;;;;25.23;7.50;;;27.10;65.40;;;;;;5019838;28;20049;-61
2022/07/20 08:02:12;;;;;;;24.10;7.88;;;27.10;65.70;;;;;;5020167;28;20033;-61
2022/07/20 08:04:37;;;;;;;19.42;8.13;;;27.20;65.90;;;;;;5017298;28;20022;-60
2022/07/20 08:07:03;;;;;;;33.58;8.13;;;27.20;65.90;;;;;;5022010;28;20450;-60
2022/07/20 08:09:29;;;;;;;21.65;7.05;;;27.20;66.00;;;;;;5018908;28;20174;-60
2022/07/20 08:11:55;;;;;;;35.65;8.70;;;27.30;66.20;;;;;;5021887;28;20658;-60
2022/07/20 08:14:20;;;;;;;45.10;8.85;;;27.30;65.70;;;;;;5018642;28;20071;-61
2022/07/20 08:16:46;;;;;;;33.47;8.52;;;27.40;66.00;;;;;;5019417;28;20045;-61
2022/07/20 08:19:11;;;;;;;36.08;9.27;;;27.50;66.00;;;;;;5014886;28;20038;-61
2022/07/20 08:21:37;;;;;;;79.22;13.55;;;27.50;66.00;;;;;;5016982;28;20021;-60
2022/07/20 08:24:06;;;;;;;56.05;10.27;;;27.50;66.30;;;;;;4999984;28;20138;-61
2022/07/20 08:26:31;;;;;;;47.58;9.80;;;27.60;66.30;;;;;;5019464;28;20093;-61
2022/07/20 08:28:57;;;;;;;50.83;9.95;;;27.70;66.60;;;;;;5019512;28;20046;-61
2022/07/20 08:31:22;;;;;;;38.50;9.40;;;27.70;66.50;;;;;;5021359;28;20137;-60
2022/07/20 08:33:48;;;;;;;29.20;9.23;;;27.80;66.70;;;;;;5015244;28;20026;-61
2022/07/20 08:36:13;;;;;;;38.17;8.57;;;27.80;66.50;;;;;;5016101;28;20044;-60
2022/07/20 08:38:39;;;;;;;35.00;9.10;;;27.90;66.50;;;;;;5018367;28;20034;-60
2022/07/20 08:41:07;;;;;;;38.70;8.50;;;28.00;66.40;;;;;;5019807;28;20121;-60
2022/07/20 08:43:33;;;;;;;33.92;8.52;;;28.00;66.00;;;;;;4999538;28;20076;-60
2022/07/20 08:45:58;;;;;;;36.88;8.95;;;28.00;66.40;;;;;;5022231;28;20057;-60
2022/07/20 08:48:25;;;;;;;50.15;8.90;;;28.10;66.60;;;;;;5017543;28;20136;-59
2022/07/20 08:50:50;;;;;;;29.45;8.07;;;28.20;66.40;;;;;;4996561;28;20500;-60
2022/07/20 08:53:17;;;;;;;41.00;9.43;;;28.20;66.40;;;;;;5020156;28;20042;-60
2022/07/20 08:55:42;;;;;;;34.92;9.63;;;28.30;66.70;;;;;;5014243;28;20104;-60
2022/07/20 08:58:10;;;;;;;46.17;9.45;;;28.30;66.30;;;;;;5008325;28;20548;-60
2022/07/20 09:00:36;;;;;;;32.45;8.27;;;28.40;66.40;;;;;;4998664;28;20032;-60
2022/07/20 09:03:04;;;;;;;38.10;9.52;;;28.40;66.30;;;;;;5012399;28;20040;-60
2022/07/20 09:05:34;;;;;;;47.00;9.32;;;28.50;66.50;;;;;;4995403;28;20650;-60
2022/07/20 09:08:00;;;;;;;42.85;9.82;;;28.50;66.30;;;;;;5014432;28;20040;-61
2022/07/20 09:10:28;;;;;;;43.83;9.82;;;28.50;66.40;;;;;;4995270;28;20485;-60
2022/07/20 09:12:54;;;;;;;41.65;9.40;;;28.50;66.20;;;;;;4997344;28;20517;-60
2022/07/20 09:15:42;;;;;;;36.65;9.15;;;28.60;66.20;;;;;;5013775;28;20041;-60
2022/07/20 09:18:12;;;;;;;43.75;9.50;;;28.60;66.00;;;;;;5011318;28;20060;-59
2022/07/20 09:20:54;;;;;;;53.03;11.60;;;28.70;66.10;;;;;;5013292;28;20021;-58
2022/07/20 09:23:22;;;;;;;36.13;9.45;;;28.70;65.80;;;;;;4983192;28;20029;-60
2022/07/20 09:25:57;;;;;;;40.83;8.77;;;28.80;65.90;;;;;;5000976;28;20182;-60
2022/07/20 09:28:26;;;;;;;61.15;11.50;;;28.80;65.70;;;;;;5010461;28;20042;-59
2022/07/20 09:30:53;;;;;;;37.85;10.05;;;28.90;65.60;;;;;;5012050;28;20459;-63
2022/07/20 09:33:26;;;;;;;48.78;11.55;;;28.90;65.50;;;;;;5014394;28;20021;-60
2022/07/20 09:35:51;;;;;;;50.47;10.38;;;29.00;65.30;;;;;;5009919;28;20167;-60
2022/07/20 09:38:17;;;;;;;30.92;9.63;;;29.00;65.10;;;;;;5011852;28;20037;-60
2022/07/20 09:40:46;;;;;;;38.17;9.27;;;29.10;65.10;;;;;;5006657;28;20418;-59
2022/07/20 09:43:28;;;;;;;37.35;9.38;;;29.10;65.00;;;;;;5012128;28;20097;-60
2022/07/20 09:45:54;;;;;;;43.55;9.60;;;29.20;65.10;;;;;;5014191;28;20075;-60
2022/07/20 09:48:23;;;;;;;41.80;9.02;;;29.20;64.90;;;;;;5016812;28;20176;-60
2022/07/20 09:50:48;;;;;;;33.58;8.68;;;29.30;64.80;;;;;;5015114;28;20131;-59
2022/07/20 09:53:14;;;;;;;33.03;9.80;;;29.30;64.60;;;;;;5016515;28;20044;-60
2022/07/20 09:55:41;;;;;;;33.00;9.48;;;29.40;64.60;;;;;;5012171;28;20123;-60
2022/07/20 09:58:06;;;;;;;32.13;8.07;;;29.50;64.40;;;;;;4994033;28;20065;-60
2022/07/20 10:00:32;;;;;;;28.90;8.65;;;29.50;64.20;;;;;;5008604;28;20549;-60
2022/07/20 10:02:59;;;;;;;35.00;9.13;;;29.60;64.10;;;;;;4994785;28;20021;-60
2022/07/20 10:05:24;;;;;;;22.92;8.00;;;29.60;63.90;;;;;;5013967;28;20049;-61
2022/07/20 10:07:50;;;;;;;29.23;8.05;;;29.70;63.50;;;;;;5017026;28;20081;-60
2022/07/20 10:10:16;;;;;;;34.88;8.85;;;29.70;63.20;;;;;;5016776;28;20064;-61
2022/07/20 10:12:41;;;;;;;29.65;8.23;;;29.80;62.90;;;;;;5011866;28;21510;-68
2022/07/20 10:15:17;;;;;;;41.78;8.25;;;29.80;62.70;;;;;;5015112;28;20033;-60
2022/07/20 10:17:44;;;;;;;33.03;8.50;;;29.90;62.60;;;;;;5011999;28;20046;-60
2022/07/20 10:20:30;;;;;;;26.23;7.22;;;29.90;62.60;;;;;;5016962;28;20054;-60
2022/07/20 10:23:14;;;;;;;28.45;8.07;;;29.90;62.10;;;;;;5016173;28;20124;-61
2022/07/20 10:25:39;;;;;;;43.70;8.20;;;30.00;62.30;;;;;;5016338;28;20022;-60
2022/07/20 10:28:27;;;;;;;37.72;8.55;;;30.00;62.00;;;;;;5005322;28;20065;-60
2022/07/20 10:30:54;;;;;;;37.10;8.02;;;30.10;61.90;;;;;;5012097;28;20029;-62
2022/07/20 10:33:20;;;;;;;44.00;8.35;;;30.10;61.50;;;;;;4995441;28;20041;-60
2022/07/20 10:35:47;;;;;;;43.03;8.63;;;30.20;61.40;;;;;;5016935;28;20560;-60
2022/07/20 10:38:14;;;;;;;31.38;7.75;;;30.20;61.00;;;;;;5015535;28;20093;-60
2022/07/20 10:41:31;;;;;;;40.28;8.75;;;30.30;60.60;;;;;;5016359;28;20056;-60
2022/07/20 10:43:25;;;;;;;24.83;7.28;;;30.40;60.70;;;;;;5003549;28;20034;-61
2022/07/20 10:45:51;;;;;;;35.05;7.95;;;30.40;60.50;;;;;;5015713;28;20044;-60
2022/07/20 10:48:17;;;;;;;36.75;8.82;;;30.40;60.50;;;;;;5017525;28;20136;-60
2022/07/20 10:50:49;;;;;;;33.30;8.25;;;30.50;60.50;;;;;;4999408;28;20030;-60
2022/07/20 10:53:15;;;;;;;95.90;16.08;;;30.50;60.30;;;;;;5015154;28;20463;-61
2022/07/20 10:55:50;;;;;;;46.33;8.93;;;30.60;60.50;;;;;;5017189;28;20456;-60
2022/07/20 10:58:23;;;;;;;26.98;8.30;;;30.60;60.10;;;;;;5015905;28;20257;-60
2022/07/20 11:00:54;;;;;;;21.58;7.45;;;30.70;60.00;;;;;;5018743;28;20111;-61
2022/07/20 11:03:25;;;;;;;34.47;9.25;;;30.70;59.90;;;;;;5011153;28;20495;-61
2022/07/20 11:06:14;;;;;;;55.80;11.57;;;30.70;59.80;;;;;;4999419;28;20077;-60
2022/07/20 11:08:42;;;;;;;37.45;9.40;;;30.80;59.70;;;;;;5011726;28;20017;-60
2022/07/20 11:11:13;;;;;;;30.85;8.30;;;30.90;59.30;;;;;;5018496;28;20025;-60
2022/07/20 11:13:39;;;;;;;35.28;7.78;;;30.90;58.90;;;;;;5019357;28;20464;-61
2022/07/20 11:16:05;;;;;;;37.42;7.65;;;31.00;58.50;;;;;;5021341;28;20030;-60
2022/07/20 11:18:31;;;;;;;46.30;9.20;;;31.00;57.90;;;;;;5013937;28;20159;-61
2022/07/20 11:21:01;;;;;;;58.38;11.15;;;31.10;57.70;;;;;;5020232;28;20514;-60
2022/07/20 11:23:42;;;;;;;42.53;9.57;;;31.20;57.40;;;;;;5016927;28;20025;-61
2022/07/20 11:26:07;;;;;;;46.90;9.32;;;31.30;57.30;;;;;;5017876;28;20036;-61
2022/07/20 11:28:50;;;;;;;38.92;8.35;;;31.40;57.20;;;;;;5017472;28;20037;-60
2022/07/20 11:31:17;;;;;;;49.35;10.20;;;31.50;57.00;;;;;;5017622;28;20026;-59
2022/07/20 11:33:46;;;;;;;56.03;9.65;;;31.50;57.10;;;;;;4991679;28;20447;-60
2022/07/20 11:36:14;;;;;;;72.70;12.07;;;31.60;57.20;;;;;;5010046;28;20630;-60
2022/07/20 11:38:50;;;;;;;47.95;8.98;;;31.70;57.10;;;;;;5017712;28;20654;-60
2022/07/20 11:41:21;;;;;;;32.13;8.10;;;31.80;57.00;;;;;;5012521;28;20057;-61
2022/07/20 11:43:47;;;;;;;39.95;8.73;;;31.80;56.90;;;;;;5014446;28;20037;-60
2022/07/20 11:46:17;;;;;;;21.15;8.10;;;31.90;56.80;;;;;;5019123;28;20372;-62
2022/07/20 11:48:43;;;;;;;20.42;7.28;;;32.00;56.60;;;;;;5015369;28;20029;-59
2022/07/20 11:51:09;;;;;;;45.55;9.07;;;32.00;56.40;;;;;;5018383;28;20025;-60
2022/07/20 11:53:40;;;;;;;30.83;8.80;;;32.10;56.30;;;;;;5015745;28;20087;-60
2022/07/20 11:56:16;;;;;;;28.48;8.65;;;32.10;56.20;;;;;;5012238;28;20508;-60
2022/07/20 11:58:44;;;;;;;26.70;8.23;;;32.20;56.20;;;;;;5015964;28;20465;-60
2022/07/20 12:01:11;;;;;;;44.88;8.63;;;32.30;56.80;;;;;;5001314;28;20057;-62
2022/07/20 12:03:42;;;;;;;41.78;8.18;;;32.40;55.90;;;;;;5017367;28;20036;-59
2022/07/20 12:06:12;;;;;;;29.95;8.23;;;32.50;55.80;;;;;;5017322;28;20466;-60
2022/07/20 12:08:38;;;;;;;25.35;7.03;;;32.50;55.40;;;;;;4995423;28;20037;-60
2022/07/20 12:11:04;;;;;;;16.60;7.13;;;32.60;55.30;;;;;;5015468;28;20025;-60
2022/07/20 12:13:30;;;;;;;23.65;6.30;;;32.60;55.30;;;;;;5015847;28;20033;-60
2022/07/20 12:16:04;;;;;;;21.83;7.15;;;32.70;55.20;;;;;;5016143;28;20033;-60
2022/07/20 12:18:40;;;;;;;26.77;7.88;;;32.70;55.30;;;;;;5016262;28;20040;-60
2022/07/20 12:21:07;;;;;;;25.05;6.90;;;32.80;55.30;;;;;;5018012;28;20184;-59
2022/07/20 12:23:33;;;;;;;22.60;6.80;;;32.80;55.30;;;;;;4999316;28;20577;-59
2022/07/20 12:25:59;;;;;;;13.38;6.03;;;32.90;55.50;;;;;;5015217;28;20068;-60
2022/07/20 12:28:32;;;;;;;24.88;6.55;;;33.00;55.80;;;;;;5020800;28;20492;-60
2022/07/20 12:31:17;;;;;;;17.73;6.20;;;33.10;55.70;;;;;;5015050;28;20060;-59
2022/07/20 12:34:05;;;;;;;18.15;6.32;;;33.20;55.80;;;;;;5014477;28;20025;-60
2022/07/20 12:36:35;;;;;;;17.08;6.32;;;33.40;55.90;;;;;;5013519;28;20052;-60
2022/07/20 12:39:01;;;;;;;16.77;6.80;;;33.40;55.70;;;;;;5009814;28;20481;-59
2022/07/20 12:41:27;;;;;;;12.68;6.45;;;33.50;56.00;;;;;;5015024;28;20347;-60